Chassell, Michigan
Current Conditions -  °F | °C
As of 1:53 PM on Thursday 23 Oct 2014 (Local Time) from KCMX Reporting Station
Overcast Overcast  
Wind Chill:   Ceiling: 2200
Heat Index:   Visibility: 10mi
Dew Point:   Wind: 8mph
Humidity: 83%   Direction: 180°S
Pressure: 29.99"   Gusts: NA
Location:  47.03°N, 88.53°W
Report Text: KCMX 231753Z AUTO 18007KT 10SM OVC022 08/06 A2999 RMK AO2 SLP162 60001 T00830056 10083 20061 58011
Loading
Personal Weather Stations






























Interactive Weather Map
Tropical Storm Tracking
New forecast layout! Learn more

10-Day Weather Forecast

Advertisements
Track Severe Weather on mobile